createdAt,value
2022-12-13T00:00:33.241Z,99921.44
2022-12-13T00:02:59.731Z,99912.69
2022-12-13T00:05:26.727Z,99917.19
2022-12-13T00:07:53.359Z,99912.75
2022-12-13T00:10:19.941Z,99913.53
2022-12-13T00:12:46.448Z,99920.47
2022-12-13T00:15:13.921Z,99916.97
2022-12-13T00:17:41.321Z,99924.03
2022-12-13T00:20:08.059Z,99921.34
2022-12-13T00:22:34.876Z,99924.22
2022-12-13T00:25:08.765Z,99924.13
2022-12-13T00:27:35.339Z,99918.13
2022-12-13T00:30:04.812Z,99929.44
2022-12-13T00:32:34.174Z,99926.31
2022-12-13T00:35:00.779Z,99936.94
2022-12-13T00:37:27.698Z,99931.53
2022-12-13T00:39:54.270Z,99936.22
2022-12-13T00:42:23.546Z,99939.31
2022-12-13T00:44:50.087Z,99950.75
2022-12-13T00:47:18.981Z,99951.63
2022-12-13T00:49:45.514Z,99956.50
2022-12-13T00:52:15.031Z,99959.06
2022-12-13T00:54:41.549Z,99962.91
2022-12-13T00:57:10.341Z,99951.94
2022-12-13T00:59:39.705Z,99952.47
2022-12-13T01:02:06.233Z,99961.13
2022-12-13T01:04:35.371Z,99958.91
2022-12-13T01:07:02.075Z,99959.59
2022-12-13T01:09:30.967Z,99954.38
2022-12-13T01:12:00.440Z,99959.00
2022-12-13T01:14:29.774Z,99961.25
2022-12-13T01:16:56.579Z,99961.91
2022-12-13T01:19:26.747Z,99965.25
2022-12-13T01:22:00.933Z,99970.91
2022-12-13T01:24:30.081Z,99964.81
2022-12-13T01:26:58.909Z,99968.34
2022-12-13T01:29:26.054Z,99969.69
2022-12-13T01:31:53.182Z,99970.78
2022-12-13T01:34:20.241Z,99962.16
2022-12-13T01:36:47.117Z,99968.47
2022-12-13T01:39:15.664Z,99970.91
2022-12-13T01:41:47.176Z,99976.88
2022-12-13T01:44:32.453Z,99981.84
2022-12-13T01:46:59.067Z,99991.56
2022-12-13T01:49:27.719Z,99983.78
2022-12-13T01:51:55.273Z,99987.75
2022-12-13T01:54:25.047Z,99994.59
2022-12-13T01:57:01.117Z,99999.44
2022-12-13T01:59:32.642Z,100011.38
2022-12-13T02:02:00.619Z,100003.66
2022-12-13T02:04:43.914Z,99999.75
2022-12-13T02:07:12.144Z,99997.75
2022-12-13T02:09:41.505Z,100001.19
2022-12-13T02:12:10.523Z,99993.63
2022-12-13T02:14:42.059Z,99999.69
2022-12-13T02:17:28.559Z,99997.28
2022-12-13T02:20:01.759Z,100001.34
2022-12-13T02:22:42.291Z,99998.28
2022-12-13T02:25:38.328Z,100001.59
2022-12-13T02:28:30.369Z,99996.09
2022-12-13T02:31:24.183Z,100004.47
2022-12-13T02:33:50.716Z,99993.47
2022-12-13T02:36:43.750Z,99991.91
2022-12-13T02:39:30.258Z,100002.00
2022-12-13T02:42:22.454Z,100000.88
2022-12-13T02:45:20.240Z,100010.91
2022-12-13T02:47:47.632Z,100011.34
2022-12-13T02:50:16.463Z,100006.97
2022-12-13T02:52:43.278Z,100010.41
2022-12-13T02:55:12.393Z,100013.50
2022-12-13T02:57:40.529Z,100007.03
2022-12-13T03:00:07.369Z,100008.06
2022-12-13T03:02:34.164Z,100003.72
2022-12-13T03:05:20.811Z,100009.06
2022-12-13T03:08:08.625Z,100005.72
2022-12-13T03:10:49.818Z,100019.22
2022-12-13T03:13:40.764Z,100005.28
2022-12-13T03:16:15.348Z,100003.72
2022-12-13T03:18:50.285Z,100006.81
2022-12-13T03:21:21.905Z,100008.88
2022-12-13T03:23:48.531Z,100009.66
2022-12-13T03:26:21.369Z,100010.69
2022-12-13T03:28:48.059Z,100012.50
2022-12-13T03:31:17.372Z,100009.06
2022-12-13T03:33:46.620Z,100011.06
2022-12-13T03:36:16.383Z,100017.50
2022-12-13T03:38:52.620Z,100021.81
2022-12-13T03:41:24.079Z,100030.16
2022-12-13T03:43:58.205Z,100025.88
2022-12-13T03:46:29.846Z,100023.53
2022-12-13T03:49:24.372Z,100023.31
2022-12-13T03:51:55.699Z,100031.34
2022-12-13T03:54:22.414Z,100029.22
2022-12-13T03:56:49.238Z,100028.88
2022-12-13T03:59:18.675Z,100034.59
2022-12-13T04:01:45.266Z,100038.16
2022-12-13T04:04:11.919Z,100033.31
2022-12-13T04:06:38.540Z,100027.06
2022-12-13T04:09:05.127Z,100034.06
2022-12-13T04:11:50.340Z,100036.97
2022-12-13T04:14:21.570Z,100038.34
2022-12-13T04:16:49.072Z,100046.47
2022-12-13T04:19:16.125Z,100045.03
2022-12-13T04:21:50.064Z,100044.09
2022-12-13T04:24:18.722Z,100042.94
2022-12-13T04:26:50.347Z,100043.38
2022-12-13T04:29:20.308Z,100042.41
2022-12-13T04:31:49.330Z,100041.28
2022-12-13T04:34:26.364Z,100041.19
2022-12-13T04:37:05.935Z,100046.03
2022-12-13T04:39:39.778Z,100047.94
2022-12-13T04:42:17.828Z,100040.94
2022-12-13T04:44:46.270Z,100041.63
2022-12-13T04:47:15.816Z,100040.59
2022-12-13T04:49:44.141Z,100050.63
2022-12-13T04:52:10.790Z,100042.50
2022-12-13T04:54:37.382Z,100046.22
2022-12-13T04:57:05.373Z,100045.38
2022-12-13T04:59:31.911Z,100040.09
2022-12-13T05:02:00.827Z,100046.81
2022-12-13T05:04:33.029Z,100047.53
2022-12-13T05:07:04.679Z,100038.19
2022-12-13T05:09:31.224Z,100034.56
2022-12-13T05:12:01.195Z,100044.53
2022-12-13T05:14:30.881Z,100044.47
2022-12-13T05:17:00.318Z,100037.97
2022-12-13T05:19:30.388Z,100032.75
2022-12-13T05:21:58.141Z,100040.16
2022-12-13T05:24:28.183Z,100034.34
2022-12-13T05:26:54.801Z,100037.75
2022-12-13T05:29:21.383Z,100032.09
2022-12-13T05:31:48.127Z,100024.03
2022-12-13T05:34:14.696Z,100031.59
2022-12-13T05:36:43.715Z,100034.91
2022-12-13T05:39:28.650Z,100037.22
2022-12-13T05:41:56.408Z,100034.88
2022-12-13T05:44:32.486Z,100043.34
2022-12-13T05:46:59.438Z,100044.59
2022-12-13T05:49:30.067Z,100043.94
2022-12-13T05:51:56.626Z,100051.75
2022-12-13T05:54:23.229Z,100044.47
2022-12-13T05:56:52.376Z,100045.22
2022-12-13T05:59:18.996Z,100038.31
2022-12-13T06:01:45.552Z,100039.00
2022-12-13T06:04:12.590Z,100036.91
2022-12-13T06:06:49.314Z,100051.53
2022-12-13T06:09:17.871Z,100048.66
2022-12-13T06:11:45.332Z,100050.47
2022-12-13T06:14:22.595Z,100060.19
2022-12-13T06:16:50.569Z,100057.72
2022-12-13T06:19:17.169Z,100056.84
2022-12-13T06:21:46.301Z,100058.84
2022-12-13T06:24:17.167Z,100056.66
2022-12-13T06:26:45.073Z,100065.66
2022-12-13T06:29:13.049Z,100073.53
2022-12-13T06:32:02.162Z,100075.16
2022-12-13T06:34:30.232Z,100074.75
2022-12-13T06:36:57.225Z,100066.69
2022-12-13T06:39:23.835Z,100078.63
2022-12-13T06:41:50.345Z,100075.09
2022-12-13T06:44:16.911Z,100081.78
2022-12-13T06:46:43.484Z,100093.53
2022-12-13T06:49:12.478Z,100086.13
2022-12-13T06:51:38.985Z,100091.31
2022-12-13T06:54:05.723Z,100080.91
2022-12-13T06:56:37.150Z,100091.00
2022-12-13T06:59:03.733Z,100086.91
2022-12-13T07:01:37.336Z,100090.66
2022-12-13T07:04:05.376Z,100100.41
2022-12-13T07:06:54.488Z,100105.75
2022-12-13T07:09:21.105Z,100101.06
2022-12-13T07:11:52.025Z,100105.09
2022-12-13T07:14:19.808Z,100104.19
2022-12-13T07:16:46.384Z,100105.06
2022-12-13T07:19:23.958Z,100105.97
2022-12-13T07:21:55.523Z,100105.84
2022-12-13T07:24:27.994Z,100102.81
2022-12-13T07:26:54.597Z,100106.38
2022-12-13T07:29:22.701Z,100108.56
2022-12-13T07:31:49.746Z,100113.22
2022-12-13T07:34:16.316Z,100109.66
2022-12-13T07:36:42.981Z,100102.31
2022-12-13T07:39:10.625Z,100103.31
2022-12-13T07:41:37.795Z,100113.97
2022-12-13T07:44:08.326Z,100116.91
2022-12-13T07:46:36.103Z,100113.25
2022-12-13T07:49:03.115Z,100119.53
2022-12-13T07:51:29.796Z,100113.28
2022-12-13T07:53:59.611Z,100119.03
2022-12-13T07:56:26.184Z,100117.88
2022-12-13T07:58:55.229Z,100117.28
2022-12-13T08:01:21.942Z,100115.06
2022-12-13T08:03:48.810Z,100118.81
2022-12-13T08:06:15.724Z,100122.78
2022-12-13T08:08:45.038Z,100123.16
2022-12-13T08:11:15.606Z,100129.00
2022-12-13T08:13:42.260Z,100128.72
2022-12-13T08:16:26.176Z,100132.00
2022-12-13T08:19:01.782Z,100125.91
2022-12-13T08:21:54.999Z,100131.63
2022-12-13T08:24:23.633Z,100132.13
2022-12-13T08:26:50.185Z,100132.41
2022-12-13T08:29:22.819Z,100129.16
2022-12-13T08:32:01.561Z,100132.72
2022-12-13T08:34:30.475Z,100129.09
2022-12-13T08:37:01.583Z,100134.00
2022-12-13T08:39:34.405Z,100126.00
2022-12-13T08:42:14.792Z,100135.75
2022-12-13T08:44:47.343Z,100130.63
2022-12-13T08:47:24.024Z,100134.75
2022-12-13T08:50:02.318Z,100130.56
2022-12-13T08:52:30.375Z,100134.38
2022-12-13T08:54:56.958Z,100132.56
2022-12-13T08:57:23.557Z,100129.72
2022-12-13T08:59:50.191Z,100134.03
2022-12-13T09:02:17.102Z,100135.63
2022-12-13T09:04:46.255Z,100126.97
2022-12-13T09:07:12.917Z,100127.06
2022-12-13T09:09:39.639Z,100129.47
2022-12-13T09:12:10.724Z,100125.06
2022-12-13T09:15:00.884Z,100121.28
2022-12-13T09:17:27.673Z,100117.59
2022-12-13T09:20:03.391Z,100120.44
2022-12-13T09:22:37.445Z,100113.44
2022-12-13T09:25:14.799Z,100115.03
2022-12-13T09:27:42.373Z,100110.53
2022-12-13T09:30:13.210Z,100103.88
2022-12-13T09:32:41.349Z,100106.53
2022-12-13T09:35:10.494Z,100102.38
2022-12-13T09:37:42.585Z,100091.00
2022-12-13T09:40:16.557Z,100092.88
2022-12-13T09:43:08.320Z,100095.31
2022-12-13T09:45:43.108Z,100101.59
2022-12-13T09:48:22.172Z,100100.22
2022-12-13T09:50:58.001Z,100103.78
2022-12-13T09:53:39.614Z,100107.97
2022-12-13T09:56:11.033Z,100102.81
2022-12-13T09:58:38.211Z,100099.69
2022-12-13T10:01:07.378Z,100105.38
2022-12-13T10:03:36.084Z,100103.94
2022-12-13T10:06:14.433Z,100101.03
2022-12-13T10:08:50.703Z,100098.50
2022-12-13T10:11:32.366Z,100090.63
2022-12-13T10:14:02.471Z,100085.66
2022-12-13T10:16:35.937Z,100085.00
2022-12-13T10:19:29.168Z,100083.34
2022-12-13T10:22:01.206Z,100082.56
2022-12-13T10:24:36.712Z,100077.41
2022-12-13T10:27:13.425Z,100073.50
2022-12-13T10:29:58.764Z,100067.00
2022-12-13T10:32:27.775Z,100068.03
2022-12-13T10:34:57.277Z,100062.25
2022-12-13T10:37:26.189Z,100064.50
2022-12-13T10:39:52.768Z,100061.63
2022-12-13T10:42:21.976Z,100063.97
2022-12-13T10:44:54.743Z,100059.41
2022-12-13T10:47:25.002Z,100054.66
2022-12-13T10:49:59.499Z,100051.19
2022-12-13T10:52:31.584Z,100049.50
2022-12-13T10:55:23.056Z,100046.13
2022-12-13T10:57:57.105Z,100040.88
2022-12-13T11:00:58.526Z,100041.69
2022-12-13T11:03:28.216Z,100040.50
2022-12-13T11:06:13.088Z,100041.53
2022-12-13T11:08:39.610Z,100037.72
2022-12-13T11:11:06.747Z,100039.28
2022-12-13T11:13:37.007Z,100036.22
2022-12-13T11:16:04.447Z,100028.44
2022-12-13T11:18:34.380Z,100035.00
2022-12-13T11:21:04.606Z,100033.38
2022-12-13T11:23:38.500Z,100026.41
2022-12-13T11:26:09.279Z,100019.34
2022-12-13T11:28:39.558Z,100018.50
2022-12-13T11:31:18.516Z,100015.78
2022-12-13T11:33:48.880Z,100011.50
2022-12-13T11:36:18.676Z,100005.75
2022-12-13T11:39:03.959Z,100006.31
2022-12-13T11:41:38.821Z,100006.59
2022-12-13T11:44:18.470Z,100004.47
2022-12-13T11:46:45.535Z,100007.69
2022-12-13T11:49:18.056Z,100009.94
2022-12-13T11:51:47.240Z,100010.88
2022-12-13T11:54:25.021Z,100004.91
2022-12-13T11:57:00.539Z,100008.88
2022-12-13T11:59:40.343Z,100009.75
2022-12-13T12:02:21.644Z,100012.59
2022-12-13T12:04:50.092Z,100013.31
2022-12-13T12:07:35.207Z,100008.16
2022-12-13T12:10:01.873Z,100008.88
2022-12-13T12:12:37.791Z,100007.47
2022-12-13T12:15:16.354Z,100008.59
2022-12-13T12:17:43.706Z,100007.63
2022-12-13T12:20:12.513Z,100002.00
2022-12-13T12:23:05.614Z,100005.34
2022-12-13T12:25:38.227Z,100005.97
2022-12-13T12:28:27.851Z,100001.03
2022-12-13T12:31:04.752Z,99993.50
2022-12-13T12:33:52.531Z,99999.75
2022-12-13T12:36:37.838Z,99992.75
2022-12-13T12:39:19.999Z,100003.56
2022-12-13T12:42:05.321Z,99990.38
2022-12-13T12:44:34.931Z,99983.56
2022-12-13T12:47:46.362Z,99989.31
2022-12-13T12:49:51.132Z,99994.16
2022-12-13T12:52:32.985Z,99995.69
2022-12-13T12:55:11.950Z,100000.19
2022-12-13T12:57:39.536Z,99999.53
2022-12-13T13:00:12.080Z,100000.47
2022-12-13T13:03:01.298Z,100003.56
2022-12-13T13:05:41.707Z,100006.69
2022-12-13T13:08:22.815Z,100001.84
2022-12-13T13:10:50.392Z,99998.50
2022-12-13T13:13:35.478Z,100005.53
2022-12-13T13:16:02.671Z,100004.50
2022-12-13T13:18:47.920Z,100008.22
2022-12-13T13:21:23.561Z,100015.28
2022-12-13T13:24:02.299Z,100015.19
2022-12-13T13:26:34.258Z,100018.25
2022-12-13T13:29:27.408Z,100017.19
2022-12-13T13:32:05.158Z,100020.84
2022-12-13T13:34:39.756Z,100021.00
2022-12-13T13:37:30.100Z,100029.03
2022-12-13T13:40:01.455Z,100027.41
2022-12-13T13:42:31.085Z,100030.22
2022-12-13T13:45:01.813Z,100026.84
2022-12-13T13:47:39.087Z,100034.72
2022-12-13T13:50:08.865Z,100040.13
2022-12-13T13:52:44.672Z,100035.88
2022-12-13T13:55:31.252Z,100030.06
2022-12-13T13:58:09.452Z,100035.28
2022-12-13T14:00:56.137Z,100038.13
2022-12-13T14:03:34.525Z,100041.00
2022-12-13T14:06:13.498Z,100044.06
2022-12-13T14:08:58.783Z,100041.28
2022-12-13T14:11:25.408Z,100045.69
2022-12-13T14:14:21.858Z,100043.63
2022-12-13T14:16:49.211Z,100049.50
2022-12-13T14:19:21.784Z,100042.28
2022-12-13T14:21:51.814Z,100050.50
2022-12-13T14:24:30.962Z,100042.19
2022-12-13T14:27:02.111Z,100049.72
2022-12-13T14:29:34.077Z,100044.38
2022-12-13T14:32:03.233Z,100050.34
2022-12-13T14:34:30.499Z,100050.28
2022-12-13T14:36:58.039Z,100049.41
2022-12-13T14:39:29.467Z,100051.81
2022-12-13T14:41:57.357Z,100047.34
2022-12-13T14:44:31.635Z,100041.28
2022-12-13T14:47:08.149Z,100050.09
2022-12-13T14:49:35.758Z,100055.44
2022-12-13T14:52:05.376Z,100053.78
2022-12-13T14:54:40.097Z,100055.41
2022-12-13T14:57:06.726Z,100055.34
2022-12-13T14:59:33.868Z,100054.47
2022-12-13T15:02:02.677Z,100061.63
2022-12-13T15:04:32.804Z,100059.38
2022-12-13T15:07:06.491Z,100060.88
2022-12-13T15:09:39.778Z,100063.22
2022-12-13T15:12:25.922Z,100072.91
2022-12-13T15:15:00.085Z,100082.16
2022-12-13T15:17:26.720Z,100088.38
2022-12-13T15:19:54.780Z,100093.03
2022-12-13T15:22:22.058Z,100093.22
2022-12-13T15:24:56.682Z,100093.28
2022-12-13T15:27:30.195Z,100088.97
2022-12-13T15:29:56.808Z,100097.28
2022-12-13T15:32:25.960Z,100099.94
2022-12-13T15:34:52.706Z,100104.34
2022-12-13T15:37:29.823Z,100111.69
2022-12-13T15:40:17.182Z,100118.84
2022-12-13T15:42:46.842Z,100115.94
2022-12-13T15:45:29.228Z,100111.94
2022-12-13T15:47:59.837Z,100113.06
2022-12-13T15:50:49.045Z,100117.34
2022-12-13T15:53:26.469Z,100116.69
2022-12-13T15:55:55.431Z,100118.41
2022-12-13T15:58:27.323Z,100118.03
2022-12-13T16:00:54.069Z,100118.25
2022-12-13T16:03:21.537Z,100126.13
2022-12-13T16:05:49.744Z,100129.38
2022-12-13T16:08:26.838Z,100139.41
2022-12-13T16:10:53.515Z,100128.88
2022-12-13T16:13:27.346Z,100143.34
2022-12-13T16:16:00.352Z,100140.38
2022-12-13T16:18:46.152Z,100133.19
2022-12-13T16:21:15.075Z,100132.78
2022-12-13T16:23:48.731Z,100128.66
2022-12-13T16:26:16.086Z,100125.44
2022-12-13T16:28:45.631Z,100131.25
2022-12-13T16:31:19.822Z,100130.84
2022-12-13T16:33:47.057Z,100135.28
2022-12-13T16:36:13.712Z,100130.84
2022-12-13T16:38:43.181Z,100135.66
2022-12-13T16:41:12.073Z,100127.41
2022-12-13T16:43:40.673Z,100125.22
2022-12-13T16:47:11.690Z,100123.34
2022-12-13T16:48:56.410Z,100138.28
2022-12-13T16:51:25.237Z,100136.91
2022-12-13T16:53:51.842Z,100129.72
2022-12-13T16:56:21.822Z,100127.84
2022-12-13T16:58:50.969Z,100122.91
2022-12-13T17:01:20.822Z,100123.50
2022-12-13T17:03:47.983Z,100119.84
2022-12-13T17:06:14.905Z,100120.81
2022-12-13T17:08:41.527Z,100127.19
2022-12-13T17:11:13.302Z,100116.56
2022-12-13T17:13:44.978Z,100120.69
2022-12-13T17:16:14.218Z,100125.50
2022-12-13T17:18:43.510Z,100132.97
2022-12-13T17:21:12.394Z,100125.72
2022-12-13T17:23:38.939Z,100124.91
2022-12-13T17:26:10.807Z,100126.38
2022-12-13T17:28:37.390Z,100136.31
2022-12-13T17:31:08.116Z,100139.69
2022-12-13T17:33:34.913Z,100133.59
2022-12-13T17:36:03.384Z,100143.13
2022-12-13T17:38:29.997Z,100142.50
2022-12-13T17:41:00.757Z,100140.25
2022-12-13T17:43:34.329Z,100149.78
2022-12-13T17:46:04.467Z,100140.72
2022-12-13T17:48:40.473Z,100136.06
2022-12-13T17:52:37.684Z,100144.56
2022-12-13T17:54:41.137Z,100146.38
2022-12-13T17:57:10.561Z,100143.69
2022-12-13T17:59:43.041Z,100147.03
2022-12-13T18:02:11.421Z,100144.78
2022-12-13T18:04:40.772Z,100134.28
2022-12-13T18:07:07.845Z,100139.41
2022-12-13T18:09:34.378Z,100133.72
2022-12-13T18:12:00.910Z,100136.56
2022-12-13T18:14:29.254Z,100129.97
2022-12-13T18:17:01.243Z,100130.97
2022-12-13T18:19:31.890Z,100125.66
2022-12-13T18:21:58.997Z,100135.69
2022-12-13T18:24:28.483Z,100133.91
2022-12-13T18:26:57.815Z,100141.66
2022-12-13T18:29:24.425Z,100127.50
2022-12-13T18:31:51.331Z,100141.75
2022-12-13T18:34:17.970Z,100142.88
2022-12-13T18:36:45.049Z,100147.78
2022-12-13T18:39:13.854Z,100142.69
2022-12-13T18:41:43.833Z,100146.50
2022-12-13T18:44:10.459Z,100148.06
2022-12-13T18:46:43.461Z,100155.75
2022-12-13T18:49:30.388Z,100154.28
2022-12-13T18:52:00.656Z,100151.50
2022-12-13T18:54:30.463Z,100143.84
2022-12-13T18:56:59.650Z,100134.41
2022-12-13T18:59:28.615Z,100137.38
2022-12-13T19:01:55.302Z,100137.09
2022-12-13T19:04:25.169Z,100133.66
2022-12-13T19:06:54.304Z,100133.09
2022-12-13T19:09:20.982Z,100140.66
2022-12-13T19:11:49.898Z,100138.69
2022-12-13T19:14:23.748Z,100137.44
2022-12-13T19:16:53.510Z,100141.59
2022-12-13T19:19:20.317Z,100147.59
2022-12-13T19:21:47.026Z,100145.91
2022-12-13T19:24:13.869Z,100144.91
2022-12-13T19:26:43.036Z,100145.31
2022-12-13T19:29:12.184Z,100139.69
2022-12-13T19:31:41.249Z,100146.50
2022-12-13T19:34:07.826Z,100149.19
2022-12-13T19:36:34.428Z,100152.53
2022-12-13T19:39:01.030Z,100150.56
2022-12-13T19:41:27.980Z,100149.25
2022-12-13T19:43:54.615Z,100144.19
2022-12-13T19:46:21.340Z,100150.53
2022-12-13T19:48:47.966Z,100148.63
2022-12-13T19:51:19.492Z,100157.91
2022-12-13T19:53:46.161Z,100142.41
2022-12-13T19:56:15.155Z,100149.44
2022-12-13T19:58:41.731Z,100152.44
2022-12-13T20:01:08.410Z,100156.13
2022-12-13T20:03:35.570Z,100157.09
2022-12-13T20:06:10.818Z,100163.28
2022-12-13T20:08:37.359Z,100156.22
2022-12-13T20:11:05.604Z,100146.09
2022-12-13T20:13:34.645Z,100143.44
2022-12-13T20:16:01.910Z,100150.66
2022-12-13T20:18:30.904Z,100160.44
2022-12-13T20:21:15.819Z,100164.25
2022-12-13T20:23:49.282Z,100170.34
2022-12-13T20:26:17.393Z,100171.97
2022-12-13T20:28:46.409Z,100170.94
2022-12-13T20:31:19.892Z,100169.53
2022-12-13T20:33:48.633Z,100168.00
2022-12-13T20:36:26.678Z,100168.94
2022-12-13T20:39:03.246Z,100162.16
2022-12-13T20:41:46.093Z,100170.25
2022-12-13T20:44:21.021Z,100168.16
2022-12-13T20:46:50.547Z,100172.16
2022-12-13T20:49:17.108Z,100176.38
2022-12-13T20:51:43.766Z,100178.16
2022-12-13T20:54:10.541Z,100175.59
2022-12-13T20:56:41.909Z,100182.00
2022-12-13T20:59:10.685Z,100182.47
2022-12-13T21:01:40.540Z,100160.97
2022-12-13T21:04:07.934Z,100169.38
2022-12-13T21:06:40.958Z,100168.63
2022-12-13T21:09:11.385Z,100157.28
2022-12-13T21:11:42.295Z,100172.25
2022-12-13T21:14:21.913Z,100161.59
2022-12-13T21:16:53.507Z,100163.69
2022-12-13T21:19:24.163Z,100160.91
2022-12-13T21:21:51.009Z,100161.25
2022-12-13T21:24:20.514Z,100154.25
2022-12-13T21:26:52.107Z,100151.09
2022-12-13T21:29:18.781Z,100150.00
2022-12-13T21:31:49.146Z,100144.91
2022-12-13T21:34:16.347Z,100144.13
2022-12-13T21:36:43.907Z,100145.25
2022-12-13T21:39:12.599Z,100147.91
2022-12-13T21:41:41.522Z,100141.56
2022-12-13T21:44:09.903Z,100138.69
2022-12-13T21:47:10.881Z,100140.34
2022-12-13T21:49:30.883Z,100137.81
2022-12-13T21:51:57.431Z,100137.03
2022-12-13T21:54:24.408Z,100146.88
2022-12-13T21:57:09.535Z,100139.25
2022-12-13T21:59:36.083Z,100139.03
2022-12-13T22:02:13.207Z,100139.81
2022-12-13T22:04:39.978Z,100141.47
2022-12-13T22:07:07.131Z,100143.16
2022-12-13T22:09:34.381Z,100144.13
2022-12-13T22:12:01.413Z,100143.06
2022-12-13T22:14:30.082Z,100139.97
2022-12-13T22:16:56.770Z,100137.75
2022-12-13T22:19:25.716Z,100132.91
2022-12-13T22:21:52.333Z,100134.56
2022-12-13T22:24:19.320Z,100127.81
2022-12-13T22:26:48.343Z,100120.84
2022-12-13T22:29:15.354Z,100118.50
2022-12-13T22:31:42.023Z,100120.94
2022-12-13T22:34:11.161Z,100119.53
2022-12-13T22:36:40.636Z,100115.44
2022-12-13T22:39:14.145Z,100121.19
2022-12-13T22:41:40.714Z,100114.19
2022-12-13T22:44:13.227Z,100114.81
2022-12-13T22:46:39.930Z,100108.94
2022-12-13T22:49:08.808Z,100107.19
2022-12-13T22:51:38.314Z,100107.41
2022-12-13T22:54:04.993Z,100109.84
2022-12-13T22:56:32.052Z,100105.19
2022-12-13T22:59:01.951Z,100109.72
2022-12-13T23:01:29.599Z,100104.94
2022-12-13T23:03:58.977Z,100100.28
2022-12-13T23:06:29.205Z,100101.84
2022-12-13T23:08:56.922Z,100099.06
2022-12-13T23:11:45.161Z,100100.66
2022-12-13T23:14:15.049Z,100096.91
2022-12-13T23:16:41.759Z,100093.56
2022-12-13T23:19:40.499Z,100089.59
2022-12-13T23:21:57.930Z,100093.25
2022-12-13T23:24:24.568Z,100092.88
2022-12-13T23:26:51.091Z,100099.31
2022-12-13T23:29:22.512Z,100093.03
2022-12-13T23:31:49.246Z,100090.16
2022-12-13T23:34:15.924Z,100104.00
2022-12-13T23:36:44.934Z,100096.63
2022-12-13T23:39:14.302Z,100095.38
2022-12-13T23:41:44.010Z,100086.75
2022-12-13T23:44:10.700Z,100085.19
2022-12-13T23:46:37.259Z,100087.22
2022-12-13T23:49:05.360Z,100089.75
2022-12-13T23:51:35.063Z,100085.56
2022-12-13T23:54:01.622Z,100085.00
2022-12-13T23:56:29.155Z,100089.31
2022-12-13T23:58:58.059Z,100086.91
